Terminal Aerodrome Forecast
Issued by NWS

Home | Current Version | Previous Version | Graphics & Text | Print | Product List | Glossary On
Versions: 1 2 3 4 5 6 7 8 9 10 11 12 13 14 15 16 17 18 19 20 21 22 23 24 25 26
000
FTUS43 KBIS 251730
TAFJMS
TAF
KJMS 251730Z 2518/2618 17013G22KT P6SM OVC007
      TEMPO 2519/2521 OVC015
     FM252100 16011KT P6SM BKN150 OVC250
     FM260900 17005KT P6SM BKN025
     FM261300 VRB03KT P6SM BKN008
     FM261700 00000KT P6SM BKN060=

USA.gov is the U.S. government's official web portal to all federal, state and local government web resources and services.